South Arkansas Regional At Goodwin Field
KELD : now visible

Airfield :











YOU CAN JOIN US ON...

 
LOGIN :

Register | Disclaimer

   EN    FR    IT 

 









Legend :    VFR   Marginal VFR   IFR   Intensive IFR   Very Intensive IFR
Visi :
Ceiling :
>= 8 km
>= 3000ft
5 to 8 km
1000 to 3000 ft
1500m to 5 km
500 to 1000 ft
800 to 1500m
200 to 500 ft
< 800m
< 200 ft
Symbols :   Thunderstorms  Fog  Heavy snow  Heavy precipitations  Wind > 20 kt






- Airport Elevation : 277 ft
- IATA code : ELD


KELD - South Arkansas Regional At Goodwin Field

CURRENT METAR :
  • 100453Z AUTO 00000KT 10SM FEW041 OVC060 18/17 A2994 RMK AO2 SLP136 T01830172 $

EXPIRED METARs :
  • 100423Z AUTO 00000KT 10SM FEW007 SCT031 OVC039 18/17 A2994 RMK AO2 LTG DSNT SW T01830172 $
  • 100353Z AUTO 03003KT 10SM BKN037 18/17 A2991 RMK AO2 LTG DSNT S AND SW SLP125 T01830172 $
  • 100321Z AUTO 00000KT 10SM SCT029 SCT034 BKN075 18/17 A2991 RMK AO2 LTG DSNT S AND SW T01830172 $
  • 100253Z AUTO 00000KT 10SM OVC029 19/17 A2989 RMK AO2 LTG DSNT S SLP118 P0001 6//// T01890172 51034 $
  • 100230Z AUTO 17007KT 10SM BKN033 18/17 A2988 RMK AO2 LTG DSNT E-S P0001 T01830172 $

TAF KELD
Valid from the 10 at 02:00 until the 11 at 00:00 UTC


100218Z 1002/1024 VRB06KT P6SM VCTS SCT025 BKN035CB
FM100600 02007KT P6SM OVC008
FM101700 03006KT P6SM OVC015
KZFW FIR / North America



MET'MAP, your aeronautical weather chart ! - Copyright ORBIFLY December 2007 - Disclaimer

ORBIFLY MET'MAP TEAM :

Programming & Development : Alexandra Zaïnal
Concept & original design : Baudouin d'Aumeries
Assistance for programming : Marc-Olivier Méhu
Technical & hardware support : Manuel Goepfert

Contact : metmap@orbifly.com




SOURCES & CREDITS :

   NOAA       Earth
Advisory